Time;durP1;ratioP1;P1;durP2;ratioP2;P2;SDS_P1;SDS_P2;PMS_P1;PMS_P2;Temp;Humidity;BMP_temperature;BMP_pressure;BME280_temperature;BME280_humidity;BME280_pressure;Samples;Min_cycle;Max_cycle;Signal;HPM_P1;HPM_P2
2021/01/14 00:02:22;;;;;;;3.15;2.85;;;;;;;-2.91;91.56;92639.56;5010076;28;19928;-90
2021/01/14 00:04:48;;;;;;;;;;;;;;;-3.05;93.19;92640.84;4998141;28;20062;-91
2021/01/14 00:07:15;;;;;;;2.20;1.73;;;;;;;-3.03;92.62;92644.00;4991609;28;19988;-90
2021/01/14 00:09:41;;;;;;;1.38;1.00;;;;;;;-3.05;91.54;92628.28;5002369;28;20494;-90
2021/01/14 00:12:07;;;;;;;;;;;;;;;-2.91;92.04;92647.09;5010411;28;20050;-89
2021/01/14 00:14:33;;;;;;;3.90;1.88;;;;;;;-2.86;91.24;92636.63;5003533;28;19922;-89
2021/01/14 00:17:00;;;;;;;5.07;2.88;;;;;;;-2.71;92.14;92640.22;5004510;28;20050;-89
2021/01/14 00:19:26;;;;;;;2.33;1.80;;;;;;;-2.95;90.33;92643.28;4994808;28;20054;-90
2021/01/14 00:21:52;;;;;;;5.18;1.70;;;;;;;-2.88;90.32;92651.84;4998405;28;20057;-91
2021/01/14 00:24:19;;;;;;;;;;;;;;;-2.66;90.62;92642.31;5014109;28;20100;-90
2021/01/14 00:26:46;;;;;;;9.65;4.57;;;;;;;-2.93;90.38;92610.47;5013324;28;19921;-91
2021/01/14 00:29:13;;;;;;;7.90;3.20;;;;;;;-2.70;91.09;92634.25;5013498;28;20057;-90
2021/01/14 00:31:39;;;;;;;4.95;2.90;;;;;;;-2.77;90.67;92614.84;5013338;28;20054;-90
2021/01/14 00:34:06;;;;;;;4.93;2.15;;;;;;;-2.71;90.45;92610.06;5013182;28;20046;-90
2021/01/14 00:36:33;;;;;;;3.45;2.13;;;;;;;-2.76;90.50;92623.97;5013485;28;20050;-90
2021/01/14 00:39:00;;;;;;;4.13;2.38;;;;;;;-2.95;89.40;92634.00;5013179;28;20508;-90
2021/01/14 00:41:27;;;;;;;1.30;1.17;;;;;;;-2.86;90.74;92616.50;5013208;28;20461;-91
2021/01/14 00:43:54;;;;;;;2.00;1.80;;;;;;;-2.63;89.91;92633.69;5013236;28;20417;-90
2021/01/14 00:46:21;;;;;;;3.63;2.08;;;;;;;-2.64;90.52;92634.63;5013096;28;20100;-90
2021/01/14 00:48:47;;;;;;;3.22;2.03;;;;;;;-2.72;90.73;92637.84;5013048;28;20050;-90
2021/01/14 00:51:14;;;;;;;5.40;3.22;;;;;;;-2.76;90.05;92644.09;5013230;28;20042;-90
2021/01/14 00:53:40;;;;;;;5.93;3.03;;;;;;;-2.85;90.10;92644.03;5013021;28;20397;-90
2021/01/14 00:56:07;;;;;;;2.95;1.92;;;;;;;-2.80;90.70;92646.09;5013196;28;20057;-90
2021/01/14 00:58:34;;;;;;;5.03;1.95;;;;;;;-2.76;91.73;92646.59;5012796;28;20056;-90
2021/01/14 01:01:01;;;;;;;4.63;2.92;;;;;;;-2.80;90.61;92635.25;5012503;28;20092;-90
2021/01/14 01:03:28;;;;;;;2.97;1.73;;;;;;;-2.98;90.18;92619.22;5011562;28;20049;-91
2021/01/14 01:05:54;;;;;;;13.07;5.25;;;;;;;-3.48;90.40;92547.59;5012469;28;20050;-88
2021/01/14 01:08:21;;;;;;;7.45;4.97;;;;;;;-2.89;90.40;92641.91;5012501;28;20046;-90
2021/01/14 01:10:47;;;;;;;5.53;4.03;;;;;;;-2.79;90.60;92637.63;5012163;28;20486;-90
2021/01/14 01:13:13;;;;;;;;;;;;;;;-2.64;93.81;92627.84;5012478;28;20050;-91
2021/01/14 01:15:40;;;;;;;1.55;1.45;;;;;;;-2.67;90.11;92625.63;5011809;28;20428;-92
2021/01/14 01:18:07;;;;;;;4.80;2.17;;;;;;;-2.91;90.48;92601.88;5012122;28;20050;-92
2021/01/14 01:20:33;;;;;;;2.33;1.85;;;;;;;-2.80;88.88;92625.19;5012062;28;21263;-91
2021/01/14 01:22:59;;;;;;;;;;;;;;;-2.87;88.59;92628.28;5012217;28;20089;-91
2021/01/14 01:25:25;;;;;;;5.82;1.40;;;;;;;-2.86;89.63;92626.56;5012582;28;19921;-91
2021/01/14 01:27:51;;;;;;;;;;;;;;;-2.93;89.97;92623.06;5012458;28;20108;-91
2021/01/14 01:30:18;;;;;;;4.25;2.58;;;;;;;-2.95;89.92;92620.66;5012244;28;19921;-92
2021/01/14 01:32:49;;;;;;;4.50;2.20;;;;;;;-3.02;90.28;92612.91;5012208;28;20054;-90
2021/01/14 01:35:15;;;;;;;13.43;1.33;;;;;;;-2.86;92.68;92603.94;5012403;28;20502;-91
2021/01/14 01:37:41;;;;;;;5.20;1.60;;;;;;;-2.86;88.53;92617.28;5012200;28;20442;-91
2021/01/14 01:40:08;;;;;;;;;;;;;;;-2.93;89.35;92615.50;5012482;28;20042;-91
2021/01/14 01:42:34;;;;;;;6.18;2.55;;;;;;;-3.06;90.50;92606.56;5012049;28;19944;-91
2021/01/14 01:45:00;;;;;;;;;;;;;;;-3.13;90.23;92608.88;5012402;28;20049;-90
2021/01/14 01:47:32;;;;;;;6.28;3.90;;;;;;;-3.06;91.71;92600.78;5012126;28;19921;-90
2021/01/14 01:50:02;;;;;;;3.28;2.03;;;;;;;-3.03;93.92;92576.16;5011887;28;20061;-90
2021/01/14 01:52:31;;;;;;;7.55;3.90;;;;;;;-2.91;90.91;92586.78;5012008;28;20137;-91
2021/01/14 01:54:57;;;;;;;4.80;2.80;;;;;;;-2.87;90.75;92598.13;5011874;28;20046;-91
2021/01/14 01:57:23;;;;;;;;;;;;;;;-2.96;91.09;92604.03;5012118;28;20499;-91
2021/01/14 01:59:49;;;;;;;4.38;2.45;;;;;;;-3.05;92.67;92603.16;5011965;28;19932;-91
2021/01/14 02:02:18;;;;;;;;;;;;;;;-2.99;94.20;92607.59;5012027;28;20524;-91
2021/01/14 02:04:45;;;;;;;2.13;1.90;;;;;;;-3.07;94.08;92599.19;5011688;28;19922;-91
2021/01/14 02:07:17;;;;;;;;;;;;;;;-3.01;95.66;92594.38;5012159;28;20057;-91
2021/01/14 02:09:47;;;;;;;5.15;3.10;;;;;;;-3.05;95.79;92597.31;5011449;28;19928;-91
2021/01/14 02:12:14;;;;;;;4.03;2.90;;;;;;;-3.17;94.60;92579.94;5011694;28;20128;-91
2021/01/14 02:14:43;;;;;;;6.07;3.08;;;;;;;-3.08;95.63;92588.34;5011620;28;20100;-91
2021/01/14 02:17:09;;;;;;;11.55;2.28;;;;;;;-2.96;99.36;92591.44;5011517;28;20054;-92
2021/01/14 02:19:40;;;;;;;3.72;3.15;;;;;;;-2.95;95.33;92588.78;5011357;28;20053;-91
2021/01/14 02:22:13;;;;;;;3.78;1.83;;;;;;;-2.95;92.27;92585.50;5011241;28;20053;-92
2021/01/14 02:24:45;;;;;;;2.65;1.80;;;;;;;-2.91;93.23;92573.41;5011276;28;20069;-92
2021/01/14 02:27:13;;;;;;;2.35;1.90;;;;;;;-2.99;93.08;92556.53;5011207;28;20077;-91
2021/01/14 02:29:40;;;;;;;5.40;2.28;;;;;;;-2.92;92.84;92574.38;5011320;28;20054;-91
2021/01/14 02:32:15;;;;;;;5.38;2.63;;;;;;;-2.96;93.14;92568.84;5011480;28;20056;-93
2021/01/14 02:34:41;;;;;;;4.32;2.33;;;;;;;-2.92;94.33;92574.38;5010982;28;20508;-91
2021/01/14 02:37:07;;;;;;;;;;;;;;;-2.83;95.58;92573.47;5011746;28;20053;-92
2021/01/14 02:39:35;;;;;;;3.33;3.00;;;;;;;-2.87;95.00;92574.72;5010497;28;19975;-92
2021/01/14 02:42:02;;;;;;;3.45;3.05;;;;;;;-3.04;95.94;92556.97;5010893;28;20054;-92
2021/01/14 02:44:28;;;;;;;;;;;;;;;-2.97;94.34;92575.56;5011718;28;20049;-92
2021/01/14 02:46:57;;;;;;;3.22;2.75;;;;;;;-3.05;94.89;92583.06;5010990;28;19928;-92
2021/01/14 02:49:27;;;;;;;6.65;3.45;;;;;;;-3.07;96.42;92577.34;5010807;28;20046;-92
2021/01/14 02:51:57;;;;;;;2.00;1.52;;;;;;;-3.04;98.27;92593.88;5010924;28;20042;-91
2021/01/14 02:54:24;;;;;;;7.95;4.80;;;;;;;-3.05;99.07;92594.81;5011015;28;20050;-92
2021/01/14 02:56:51;;;;;;;7.88;3.83;;;;;;;-3.09;98.93;92587.53;5010898;28;20112;-93
2021/01/14 02:59:17;;;;;;;13.88;5.72;;;;;;;-3.07;98.81;92596.69;5011232;28;20517;-91
2021/01/14 03:01:45;;;;;;;10.50;7.35;;;;;;;-3.22;96.71;92597.97;5010568;28;20054;-91
2021/01/14 03:04:11;;;;;;;12.88;3.70;;;;;;;-3.24;97.57;92597.28;5010847;28;20053;-91
2021/01/14 03:06:37;;;;;;;;;;;;;;;-3.32;98.20;92583.84;5011298;28;20042;-91
2021/01/14 03:09:04;;;;;;;8.43;4.00;;;;;;;-3.35;98.59;92592.47;5010808;28;19991;-91
2021/01/14 03:11:32;;;;;;;9.10;3.67;;;;;;;-3.49;99.15;92571.13;5010508;28;20132;-92
2021/01/14 03:13:58;;;;;;;13.77;4.07;;;;;;;-3.36;100.00;92581.66;5010538;28;20124;-92
2021/01/14 03:16:25;;;;;;;4.88;3.58;;;;;;;-3.31;100.00;92585.44;5010373;28;20042;-91
2021/01/14 03:18:53;;;;;;;6.75;3.20;;;;;;;-3.29;100.00;92581.06;5010414;28;20046;-92
2021/01/14 03:21:20;;;;;;;4.18;2.75;;;;;;;-3.24;100.00;92586.47;5010323;28;20516;-91
2021/01/14 03:23:46;;;;;;;7.90;3.28;;;;;;;-3.24;100.00;92578.94;5010597;28;20069;-91
2021/01/14 03:26:13;;;;;;;6.72;3.53;;;;;;;-3.27;99.75;92577.50;5010510;28;20054;-92
2021/01/14 03:28:39;;;;;;;6.65;4.15;;;;;;;-3.22;99.03;92577.06;5010467;28;20050;-93
2021/01/14 03:31:05;;;;;;;14.27;5.78;;;;;;;-3.19;100.00;92571.75;5010368;28;20053;-92
2021/01/14 03:33:32;;;;;;;7.57;3.75;;;;;;;-3.15;100.00;92568.00;5010800;28;20120;-92
2021/01/14 03:35:59;;;;;;;;;;;;;;;-3.18;100.00;92558.28;5011069;28;20396;-93
2021/01/14 03:38:25;;;;;;;7.68;4.75;;;;;;;-3.28;99.73;92548.25;5010404;28;19921;-94
2021/01/14 03:40:52;;;;;;;5.13;3.22;;;;;;;-3.26;99.81;92566.50;5010367;28;20050;-93
2021/01/14 03:43:18;;;;;;;3.78;2.75;;;;;;;-3.37;100.00;92549.13;5010212;28;20413;-92
2021/01/14 03:45:44;;;;;;;;;;;;;;;-3.34;99.95;92555.59;5010566;28;20544;-92
2021/01/14 03:48:10;;;;;;;6.65;2.70;;;;;;;-3.43;99.82;92560.50;5010594;28;19921;-92
2021/01/14 03:50:36;;;;;;;4.85;2.20;;;;;;;-3.52;99.72;92553.84;5017668;28;20104;-92
2021/01/14 03:53:03;;;;;;;;;;;;;;;-3.56;100.00;92550.81;5021082;28;20482;-93
2021/01/14 03:55:30;;;;;;;4.63;3.53;;;;;;;-3.65;100.00;92539.88;5014694;28;19925;-93
2021/01/14 03:57:55;;;;;;;;;;;;;;;-3.69;100.00;92536.09;5015067;28;20451;-93
2021/01/14 04:00:22;;;;;;;4.68;2.90;;;;;;;-3.81;100.00;92535.47;5014642;28;19921;-93
2021/01/14 04:02:48;;;;;;;5.20;3.47;;;;;;;-3.83;100.00;92531.53;5014937;28;20520;-93
2021/01/14 04:05:14;;;;;;;;;;;;;;;-3.81;100.00;92547.22;5016244;28;20050;-92
2021/01/14 04:07:42;;;;;;;3.60;2.47;;;;;;;-3.85;100.00;92546.72;5015332;28;19922;-92
2021/01/14 04:10:10;;;;;;;8.45;3.80;;;;;;;-4.11;100.00;92509.72;5015310;28;20058;-94
2021/01/14 04:12:36;;;;;;;2.17;1.95;;;;;;;-3.89;100.00;92547.94;5014560;28;20050;-92
2021/01/14 04:15:02;;;;;;;;;;;;;;;-3.93;100.00;92546.63;5015007;28;20085;-92
2021/01/14 04:17:28;;;;;;;5.50;4.72;;;;;;;-3.99;100.00;92547.94;5014118;28;19948;-93
2021/01/14 04:19:55;;;;;;;3.60;2.22;;;;;;;-4.25;100.00;92498.44;5014175;28;20050;-93
2021/01/14 04:22:21;;;;;;;4.88;3.33;;;;;;;-4.10;100.00;92520.53;5013984;28;20054;-93
2021/01/14 04:24:48;;;;;;;6.75;3.47;;;;;;;-4.00;100.00;92526.31;5014154;28;20045;-92
2021/01/14 04:27:15;;;;;;;5.82;4.22;;;;;;;-3.92;100.00;92523.91;5013610;28;20057;-92
2021/01/14 04:29:41;;;;;;;6.63;4.53;;;;;;;-3.91;100.00;92522.19;5013756;28;20061;-93
2021/01/14 04:32:07;;;;;;;;;;;;;;;-3.93;100.00;92526.56;5014364;28;20060;-93
2021/01/14 04:34:33;;;;;;;8.70;2.47;;;;;;;-4.02;100.00;92523.16;5024304;28;19926;-95
2021/01/14 04:37:00;;;;;;;;;;;;;;;-4.04;100.00;92525.81;5033907;28;20054;-94
2021/01/14 04:39:27;;;;;;;6.30;3.05;;;;;;;-4.08;100.00;92524.50;5034412;28;19926;-95
2021/01/14 04:41:56;;;;;;;8.95;4.22;;;;;;;-4.17;100.00;92513.56;5031563;28;20054;-94
2021/01/14 04:44:24;;;;;;;15.73;6.85;;;;;;;-4.11;100.00;92524.78;5026912;28;20077;-93
2021/01/14 04:46:55;;;;;;;7.63;4.97;;;;;;;-4.10;100.00;92521.34;5028808;28;20054;-94
2021/01/14 04:49:22;;;;;;;8.68;4.22;;;;;;;-4.22;100.00;92518.19;5022108;28;20080;-94
2021/01/14 04:51:49;;;;;;;8.60;4.82;;;;;;;-4.16;100.00;92512.63;5028842;28;20053;-94
2021/01/14 04:54:23;;;;;;;7.85;5.57;;;;;;;-4.18;100.00;92518.72;5030084;28;20046;-94
2021/01/14 04:56:54;;;;;;;7.40;5.05;;;;;;;-4.25;100.00;92508.47;5022840;28;20490;-94
2021/01/14 04:59:24;;;;;;;13.27;6.00;;;;;;;-4.29;100.00;92507.16;5028786;28;20046;-94
2021/01/14 05:01:54;;;;;;;11.10;5.03;;;;;;;-4.41;99.83;92498.22;5026310;28;20081;-95
2021/01/14 05:04:21;;;;;;;6.28;4.38;;;;;;;-4.51;99.67;92481.47;5025714;28;20049;-94
2021/01/14 05:06:57;;;;;;;9.45;5.63;;;;;;;-4.26;100.00;92499.34;5029757;28;20046;-93
2021/01/14 05:09:25;;;;;;;;;;;;;;;-4.24;100.00;92496.69;5029879;28;20077;-94
2021/01/14 05:11:57;;;;;;;7.22;5.25;;;;;;;-4.79;100.00;92436.31;5024622;28;19929;-95
2021/01/14 05:14:24;;;;;;;16.55;7.28;;;;;;;-4.43;100.00;92488.31;5024169;28;20052;-93
2021/01/14 05:16:51;;;;;;;17.77;6.47;;;;;;;-4.41;100.00;92490.69;5020671;28;20046;-95
2021/01/14 05:19:18;;;;;;;12.82;6.68;;;;;;;-4.64;100.00;92474.25;5015856;28;20430;-93
2021/01/14 05:21:45;;;;;;;12.05;7.13;;;;;;;-4.40;100.00;92497.28;5020439;28;20057;-94
2021/01/14 05:24:13;;;;;;;10.07;5.57;;;;;;;-4.55;100.00;92462.63;5021761;28;20140;-95
2021/01/14 05:26:40;;;;;;;4.40;2.35;;;;;;;-4.29;100.00;92484.56;5022011;28;20045;-94
2021/01/14 05:29:17;;;;;;;9.15;3.72;;;;;;;-4.62;100.00;92432.31;5022278;28;20552;-96
2021/01/14 05:31:45;;;;;;;5.50;3.00;;;;;;;-5.11;100.00;92357.28;5025753;28;20069;-94
2021/01/14 05:34:13;;;;;;;8.35;2.88;;;;;;;-4.33;100.00;92468.22;5020979;28;20045;-95
2021/01/14 05:36:53;;;;;;;1.70;1.33;;;;;;;-4.35;100.00;92477.59;5014498;28;20486;-95
2021/01/14 05:39:20;;;;;;;1.38;1.25;;;;;;;-4.56;100.00;92456.03;5016424;28;20057;-95
2021/01/14 05:41:47;;;;;;;5.07;3.30;;;;;;;-4.45;100.00;92468.41;5019976;28;20054;-95
2021/01/14 05:44:14;;;;;;;4.43;1.67;;;;;;;-4.64;99.98;92449.19;5022926;28;20077;-93
2021/01/14 05:46:40;;;;;;;4.18;2.22;;;;;;;-4.51;100.00;92468.13;5022035;28;20054;-95
2021/01/14 05:49:09;;;;;;;;;;;;;;;-4.52;100.00;92477.41;5022007;28;20054;-95
2021/01/14 05:51:36;;;;;;;4.70;3.00;;;;;;;-4.54;99.55;92478.47;5018966;28;19921;-95
2021/01/14 05:54:03;;;;;;;5.72;4.13;;;;;;;-4.65;98.70;92461.84;5017866;28;20050;-95
2021/01/14 05:56:34;;;;;;;11.10;4.90;;;;;;;-4.58;99.52;92466.19;5017318;28;20108;-94
2021/01/14 05:59:00;;;;;;;9.77;5.78;;;;;;;-4.59;99.62;92464.59;5016271;28;20407;-94
2021/01/14 06:01:27;;;;;;;7.10;2.83;;;;;;;-4.60;99.80;92459.72;5018655;28;20054;-95
2021/01/14 06:03:53;;;;;;;10.38;4.82;;;;;;;-4.67;100.00;92451.19;5016846;28;20054;-94
2021/01/14 06:06:21;;;;;;;14.57;6.47;;;;;;;-4.59;99.93;92471.31;5016116;28;20053;-96
2021/01/14 06:08:48;;;;;;;17.42;7.68;;;;;;;-4.60;99.80;92467.25;5014300;28;20046;-94
2021/01/14 06:11:19;;;;;;;14.02;5.65;;;;;;;-4.71;99.64;92463.97;5014446;28;20085;-95
2021/01/14 06:13:45;;;;;;;16.05;4.88;;;;;;;-4.66;100.00;92481.13;5014872;28;20046;-95
2021/01/14 06:16:11;;;;;;;8.52;7.15;;;;;;;-4.91;99.75;92449.94;5013830;28;20045;-95
2021/01/14 06:18:38;;;;;;;9.70;5.78;;;;;;;-4.69;99.25;92491.41;5012212;28;20486;-95
2021/01/14 06:21:04;;;;;;;13.02;4.35;;;;;;;-4.68;99.79;92494.72;5012967;28;20054;-94
2021/01/14 06:23:45;;;;;;;7.80;4.80;;;;;;;-4.71;99.91;92501.56;5013181;28;20053;-94
2021/01/14 06:26:12;;;;;;;17.08;8.98;;;;;;;-4.88;99.91;92472.19;5011810;28;20960;-95
2021/01/14 06:28:38;;;;;;;18.50;8.38;;;;;;;-4.67;99.71;92509.63;5011935;28;20085;-96
2021/01/14 06:31:07;;;;;;;;;;;;;;;-4.67;99.26;92496.28;5011999;28;20869;-95
2021/01/14 06:33:34;;;;;;;9.07;5.95;;;;;;;-5.07;99.69;92451.25;5011850;28;19932;-93
2021/01/14 06:36:09;;;;;;;17.45;7.88;;;;;;;-4.87;99.91;92466.25;5009730;28;20513;-94
2021/01/14 06:38:44;;;;;;;13.20;7.75;;;;;;;-4.62;100.00;92491.66;4994700;28;20049;-93
2021/01/14 06:41:15;;;;;;;15.77;11.57;;;;;;;-4.61;100.00;92493.25;5011057;28;20438;-94
2021/01/14 06:43:43;;;;;;;8.73;7.00;;;;;;;-4.80;100.00;92452.28;5011017;28;20422;-94
2021/01/14 06:46:16;;;;;;;11.52;7.03;;;;;;;-4.53;100.00;92485.03;5010930;28;20565;-93
2021/01/14 06:48:49;;;;;;;13.85;8.70;;;;;;;-4.49;100.00;92487.13;5011059;28;20054;-93
2021/01/14 06:51:24;;;;;;;12.82;7.10;;;;;;;-4.39;99.05;92489.63;5010848;28;20141;-94
2021/01/14 06:53:56;;;;;;;16.23;7.70;;;;;;;-4.53;100.00;92453.25;5011103;28;20041;-94
2021/01/14 06:56:24;;;;;;;7.40;5.95;;;;;;;-4.21;99.62;92483.88;5010898;28;20125;-95
2021/01/14 06:58:52;;;;;;;30.73;13.85;;;;;;;-4.11;100.00;92494.69;5010839;28;20049;-92
2021/01/14 07:01:20;;;;;;;15.77;10.77;;;;;;;-3.96;99.19;92491.69;5010708;28;20058;-92
2021/01/14 07:03:57;;;;;;;12.40;5.78;;;;;;;-3.87;98.90;92495.09;5010605;28;20046;-92
2021/01/14 07:06:27;;;;;;;11.45;7.63;;;;;;;-3.76;98.42;92495.69;5010771;28;20065;-92
2021/01/14 07:09:13;;;;;;;11.85;6.82;;;;;;;-3.68;98.19;92494.19;5010693;28;20050;-92
2021/01/14 07:11:42;;;;;;;11.60;4.85;;;;;;;-3.58;97.46;92496.63;5010567;28;20050;-92
2021/01/14 07:14:15;;;;;;;13.73;6.45;;;;;;;-3.40;97.84;92497.47;5010306;28;20061;-91
2021/01/14 07:16:43;;;;;;;18.48;8.63;;;;;;;-3.36;96.16;92473.66;5010809;28;20081;-91
2021/01/14 07:19:10;;;;;;;14.70;6.13;;;;;;;-3.13;94.73;92487.50;5010530;28;20057;-91
2021/01/14 07:21:37;;;;;;;13.90;6.72;;;;;;;-2.84;94.10;92483.94;5010350;28;20045;-90
2021/01/14 07:24:18;;;;;;;6.53;3.97;;;;;;;-2.67;92.62;92481.53;5010389;28;20080;-91
2021/01/14 07:26:45;;;;;;;7.97;3.78;;;;;;;-2.48;91.18;92481.34;5009730;28;20523;-91
2021/01/14 07:29:13;;;;;;;5.35;4.32;;;;;;;-2.31;90.80;92478.94;5010419;28;20096;-91
2021/01/14 07:31:47;;;;;;;10.88;4.57;;;;;;;-2.12;89.24;92477.13;5010421;28;20042;-90
2021/01/14 07:34:35;;;;;;;6.78;4.80;;;;;;;-2.04;88.74;92457.03;5010394;28;20092;-90
2021/01/14 07:37:02;;;;;;;12.63;4.68;;;;;;;-2.20;87.24;92430.06;5009916;28;20077;-90
2021/01/14 07:39:52;;;;;;;2.33;1.83;;;;;;;-1.93;86.53;92446.69;5010474;28;20053;-89
2021/01/14 07:42:44;;;;;;;1.63;1.25;;;;;;;-1.96;86.61;92428.56;5010159;28;20108;-90
2021/01/14 07:45:15;;;;;;;4.07;1.83;;;;;;;-1.65;84.05;92423.00;5010058;28;20096;-90
2021/01/14 07:47:41;;;;;;;1.35;1.13;;;;;;;-1.47;84.27;92422.88;5010342;28;20057;-89
2021/01/14 07:50:20;;;;;;;;;;;;;;;-1.43;82.46;92424.13;5010614;28;20058;-89
2021/01/14 07:52:47;;;;;;;7.72;3.13;;;;;;;-1.37;82.90;92432.78;5010214;28;21261;-89
2021/01/14 07:55:25;;;;;;;3.50;2.05;;;;;;;-1.27;81.61;92433.44;5010143;28;20477;-89
2021/01/14 07:58:02;;;;;;;6.65;3.08;;;;;;;-1.27;81.86;92442.72;5009940;28;20137;-89
2021/01/14 08:00:29;;;;;;;4.85;3.17;;;;;;;-1.06;81.03;92446.50;5008603;28;20545;-88
2021/01/14 08:03:09;;;;;;;6.97;3.47;;;;;;;-0.89;81.06;92439.75;5009925;28;20448;-89
2021/01/14 08:05:43;;;;;;;5.25;3.33;;;;;;;-0.77;78.47;92404.88;5009865;28;20413;-88
2021/01/14 08:08:28;;;;;;;9.27;2.90;;;;;;;-0.49;78.48;92417.13;5009939;28;20417;-89
2021/01/14 08:11:23;;;;;;;7.60;2.75;;;;;;;-0.47;77.93;92410.97;5010217;28;20088;-89
2021/01/14 08:14:08;;;;;;;;;;;;;;;-0.28;74.51;92419.09;4976183;28;20046;-88
2021/01/14 08:16:42;;;;;;;32.15;13.90;;;;;;;-0.20;75.28;92416.56;5010040;28;19971;-89
2021/01/14 08:19:19;;;;;;;14.48;4.93;;;;;;;0.07;73.13;92416.28;5010177;28;20058;-88
2021/01/14 08:21:46;;;;;;;11.07;5.05;;;;;;;-0.01;74.45;92412.84;5009650;28;20050;-89
2021/01/14 08:24:32;;;;;;;12.95;6.85;;;;;;;-0.11;72.26;92412.25;5009932;28;20054;-89
2021/01/14 08:27:02;;;;;;;14.52;4.50;;;;;;;-0.30;73.81;92410.91;5009599;28;20065;-89
2021/01/14 08:29:33;;;;;;;9.88;4.88;;;;;;;-0.28;74.38;92406.47;5009763;28;20049;-88
2021/01/14 08:31:59;;;;;;;3.20;1.90;;;;;;;-0.34;74.93;92389.47;5009790;28;20490;-89
2021/01/14 08:34:26;;;;;;;2.60;1.55;;;;;;;-0.38;73.90;92373.09;5009797;28;20108;-89
2021/01/14 08:36:54;;;;;;;12.15;6.20;;;;;;;-0.50;74.75;92349.94;5009667;28;20494;-89
2021/01/14 08:39:22;;;;;;;12.18;3.95;;;;;;;-0.62;76.74;92330.13;5013209;28;20133;-88
2021/01/14 08:41:49;;;;;;;5.95;3.22;;;;;;;-0.62;76.91;92306.63;5013340;28;20053;-89
2021/01/14 08:44:17;;;;;;;4.85;2.63;;;;;;;-0.53;76.64;92308.19;5013399;28;20111;-89
2021/01/14 08:46:48;;;;;;;6.95;4.28;;;;;;;-0.42;76.60;92309.53;5013125;28;20050;-90
2021/01/14 08:49:15;;;;;;;5.95;3.00;;;;;;;-0.51;75.26;92297.94;5013008;28;20046;-89
2021/01/14 08:51:42;;;;;;;4.97;3.88;;;;;;;-0.51;75.40;92306.25;5013189;28;20092;-90
2021/01/14 08:54:10;;;;;;;9.50;1.95;;;;;;;-0.47;74.38;92309.28;5012928;28;20053;-88
2021/01/14 08:56:36;;;;;;;2.45;1.75;;;;;;;-0.58;74.35;92282.66;5012754;28;20112;-89
2021/01/14 08:59:13;;;;;;;2.80;2.15;;;;;;;-0.47;73.51;92279.75;5013263;28;20050;-88
2021/01/14 09:01:41;;;;;;;3.95;1.33;;;;;;;-0.26;74.50;92275.88;5012795;28;20049;-88
2021/01/14 09:04:08;;;;;;;7.65;3.47;;;;;;;-0.06;74.48;92293.09;5012739;28;20058;-88
2021/01/14 09:06:38;;;;;;;3.85;2.58;;;;;;;-0.12;73.48;92273.59;5012562;28;20080;-88
2021/01/14 09:09:05;;;;;;;8.07;4.00;;;;;;;-0.02;73.18;92269.09;5012995;28;20046;-90
2021/01/14 09:11:33;;;;;;;7.95;4.25;;;;;;;0.15;72.30;92269.78;5012714;28;20399;-89
2021/01/14 09:14:07;;;;;;;5.78;2.78;;;;;;;0.23;71.56;92249.50;5012739;28;20045;-85
2021/01/14 09:16:34;;;;;;;29.77;7.10;;;;;;;0.33;71.14;92254.31;5012654;28;20100;-87
2021/01/14 09:19:01;;;;;;;11.52;4.38;;;;;;;0.45;72.46;92249.63;5012941;28;20052;-87
2021/01/14 09:21:34;;;;;;;5.53;2.35;;;;;;;0.03;68.55;92168.38;5012312;28;20556;-87
2021/01/14 09:24:08;;;;;;;12.25;5.18;;;;;;;0.70;70.58;92248.63;5012064;28;20049;-86
2021/01/14 09:26:38;;;;;;;13.48;6.47;;;;;;;0.55;69.17;92223.34;5011730;28;20438;-88
2021/01/14 09:29:05;;;;;;;6.88;3.28;;;;;;;0.43;71.40;92236.41;5011879;28;20053;-87
2021/01/14 09:31:33;;;;;;;6.97;3.28;;;;;;;0.23;72.81;92224.25;5012251;28;20054;-88
2021/01/14 09:34:01;;;;;;;9.02;3.67;;;;;;;0.19;71.07;92244.97;5011576;28;20482;-88
2021/01/14 09:36:28;;;;;;;5.75;2.17;;;;;;;0.10;71.73;92237.44;5008951;28;21130;-89
2021/01/14 09:38:56;;;;;;;10.43;4.90;;;;;;;0.06;72.73;92228.66;5012246;28;20049;-90
2021/01/14 09:41:28;;;;;;;8.68;4.03;;;;;;;0.08;73.98;92203.22;5006821;28;20054;-90
2021/01/14 09:43:56;;;;;;;4.95;2.38;;;;;;;0.06;73.20;92212.72;5011868;28;20050;-90
2021/01/14 09:46:24;;;;;;;6.00;2.50;;;;;;;0.01;72.83;92220.00;5011821;28;20398;-89
2021/01/14 09:48:56;;;;;;;5.78;2.40;;;;;;;0.08;69.75;92219.16;5011233;28;20096;-89
2021/01/14 09:51:23;;;;;;;12.32;3.00;;;;;;;0.04;71.84;92207.06;5012146;28;20141;-90
2021/01/14 09:53:50;;;;;;;4.88;2.47;;;;;;;0.05;71.78;92208.63;5011924;28;20053;-89
2021/01/14 09:56:20;;;;;;;7.95;3.60;;;;;;;0.01;72.33;92199.81;5011950;28;20049;-90
2021/01/14 09:58:54;;;;;;;7.05;2.72;;;;;;;0.08;72.67;92219.16;5011710;28;20056;-90
2021/01/14 10:01:26;;;;;;;4.65;1.17;;;;;;;0.00;71.63;92224.28;5011621;28;20054;-89
2021/01/14 10:04:02;;;;;;;4.18;1.95;;;;;;;-0.06;71.82;92208.06;5011895;28;20096;-91
2021/01/14 10:06:32;;;;;;;21.45;5.82;;;;;;;0.03;71.65;92228.19;5011410;28;20046;-90
2021/01/14 10:08:58;;;;;;;6.43;4.32;;;;;;;0.19;69.34;92220.47;5011565;28;20076;-89
2021/01/14 10:11:25;;;;;;;;;;;;;;;0.16;69.13;92212.47;5012235;28;20112;-89
2021/01/14 10:13:52;;;;;;;9.07;3.17;;;;;;;-0.07;72.30;92188.81;4993092;28;20012;-91
2021/01/14 10:16:20;;;;;;;6.75;2.40;;;;;;;0.04;71.01;92209.59;4993572;28;20051;-91
2021/01/14 10:18:47;;;;;;;10.30;3.58;;;;;;;0.05;71.48;92211.16;5011074;28;20046;-90
2021/01/14 10:21:14;;;;;;;5.65;3.13;;;;;;;0.05;70.07;92211.16;5009779;28;20054;-90
2021/01/14 10:23:42;;;;;;;4.82;2.70;;;;;;;0.07;71.11;92211.75;5006968;28;20046;-91
2021/01/14 10:26:08;;;;;;;10.18;3.22;;;;;;;0.04;72.18;92199.47;5003023;28;20096;-90
2021/01/14 10:28:43;;;;;;;6.65;4.43;;;;;;;0.11;72.04;92195.31;5011548;28;20057;-90
2021/01/14 10:31:11;;;;;;;10.48;5.05;;;;;;;0.27;71.52;92209.53;5011453;28;20046;-90
2021/01/14 10:33:37;;;;;;;15.13;6.30;;;;;;;0.34;71.64;92202.06;5011264;28;20064;-90
2021/01/14 10:36:03;;;;;;;;;;;;;;;0.44;68.48;92214.44;5011495;28;20052;-90
2021/01/14 10:38:30;;;;;;;7.75;3.78;;;;;;;0.34;70.94;92202.84;4994340;28;19929;-91
2021/01/14 10:40:58;;;;;;;;;;;;;;;0.31;70.92;92200.66;4992063;28;20441;-91
2021/01/14 10:43:33;;;;;;;4.57;2.50;;;;;;;0.21;69.50;92203.44;4991749;28;20003;-89
2021/01/14 10:46:00;;;;;;;6.93;4.00;;;;;;;0.13;70.26;92198.44;4991346;28;20057;-90
2021/01/14 10:48:36;;;;;;;5.57;2.67;;;;;;;0.17;68.22;92201.41;4991177;28;20561;-90
2021/01/14 10:51:02;;;;;;;;;;;;;;;0.24;69.91;92199.78;4992007;28;20125;-90
2021/01/14 10:53:30;;;;;;;9.52;2.45;;;;;;;0.23;68.70;92198.22;4991215;28;20232;-90
2021/01/14 10:56:08;;;;;;;4.97;3.03;;;;;;;0.05;70.29;92176.56;4991144;28;20585;-91
2021/01/14 10:58:35;;;;;;;3.35;2.38;;;;;;;0.19;68.96;92207.84;4991173;28;20085;-88
2021/01/14 11:01:02;;;;;;;35.47;17.23;;;;;;;0.22;68.19;92219.34;4990195;28;20490;-89
2021/01/14 11:03:29;;;;;;;10.40;4.68;;;;;;;0.28;69.83;92208.59;4991304;28;20046;-90
2021/01/14 11:05:58;;;;;;;4.95;2.83;;;;;;;0.30;69.35;92196.56;4991310;28;20047;-89
2021/01/14 11:08:26;;;;;;;7.20;3.45;;;;;;;0.39;69.86;92205.66;4991236;28;20057;-88
2021/01/14 11:11:03;;;;;;;6.35;3.13;;;;;;;0.34;70.45;92181.84;4990916;28;20137;-89
2021/01/14 11:13:39;;;;;;;6.53;3.20;;;;;;;0.39;69.83;92189.69;4990837;28;20517;-89
2021/01/14 11:16:06;;;;;;;2.00;1.42;;;;;;;0.33;68.69;92176.00;4991005;28;20513;-89
2021/01/14 11:18:35;;;;;;;1.52;1.00;;;;;;;0.24;67.50;92175.28;4990944;28;20051;-90
2021/01/14 11:21:02;;;;;;;3.58;1.90;;;;;;;0.26;68.83;92187.75;4991119;28;20066;-89
2021/01/14 11:23:28;;;;;;;3.78;2.13;;;;;;;0.26;68.44;92180.97;4990932;28;20054;-88
2021/01/14 11:25:54;;;;;;;;;;;;;;;0.31;69.18;92182.19;4991121;28;20062;-90
2021/01/14 11:28:20;;;;;;;1.67;1.17;;;;;;;0.25;69.11;92176.88;5008795;28;19921;-89
2021/01/14 11:30:48;;;;;;;3.25;1.70;;;;;;;0.17;68.43;92159.28;5010276;28;20053;-88
2021/01/14 11:33:14;;;;;;;3.88;1.08;;;;;;;0.30;66.33;92185.66;5010249;28;20049;-88
2021/01/14 11:35:40;;;;;;;2.38;1.55;;;;;;;0.26;68.64;92180.19;5010230;28;20049;-88
2021/01/14 11:38:06;;;;;;;3.42;1.27;;;;;;;0.05;69.72;92151.31;5009988;28;20046;-88
2021/01/14 11:40:32;;;;;;;;;;;;;;;0.16;69.02;92165.28;5010548;28;20050;-88
2021/01/14 11:42:59;;;;;;;2.75;1.80;;;;;;;0.12;68.95;92159.00;5010344;28;19983;-88
2021/01/14 11:45:25;;;;;;;2.33;1.77;;;;;;;-0.09;67.87;92125.09;5010205;28;20049;-88
2021/01/14 11:47:52;;;;;;;2.70;1.95;;;;;;;0.03;68.23;92143.13;5009498;28;20042;-87